Terminal Aerodrome Forecast
Issued by NWS Nashville, TN

Home | Current Version | Previous Version | Text Only | Print | Product List | Glossary On
Versions: 1 2 3 4 5 6 7 8 9 10 11 12 13 14 15 16 17 18 19 20 21 22 23 24 25 26 27 28 29 30 31 32
000
FTUS44 KOHX 021625 AAC
TAFCSV
TAF AMD
KCSV 021625Z 0216/0312 23005KT 2SM RA BR SCT050 OVC100
     FM021800 24009KT 6SM BR SCT025 BKN045 OVC070
     FM030000 25006KT P6SM VCSH BKN040 OVC070=

USA.gov is the U.S. government's official web portal to all federal, state and local government web resources and services.